sensor_id;sensor_type;location;lat;lon;timestamp;pressure;altitude;pressure_sealevel;temperature;humidity
63691;BME280;49837;57.280;27.070;2023-05-11T00:00:21;101053.64;;;3.95;80.96
63691;BME280;49837;57.280;27.070;2023-05-11T00:01:21;101053.52;;;3.9;81.32
63691;BME280;49837;57.280;27.070;2023-05-11T00:02:22;101055.05;;;3.88;81.21
63691;BME280;49837;57.280;27.070;2023-05-11T00:03:22;101053.08;;;3.88;81.38
63691;BME280;49837;57.280;27.070;2023-05-11T00:04:22;101052.27;;;3.83;81.83
63691;BME280;49837;57.280;27.070;2023-05-11T00:05:23;101055.06;;;3.76;81.97
63691;BME280;49837;57.280;27.070;2023-05-11T00:06:23;101051.2;;;3.71;82.17
63691;BME280;49837;57.280;27.070;2023-05-11T00:07:23;101054.36;;;3.65;82.19
63691;BME280;49837;57.280;27.070;2023-05-11T00:08:24;101056.25;;;3.65;81.91
63691;BME280;49837;57.280;27.070;2023-05-11T00:09:24;101053.7;;;3.65;82.24
63691;BME280;49837;57.280;27.070;2023-05-11T00:10:24;101054.75;;;3.64;82.26
63691;BME280;49837;57.280;27.070;2023-05-11T00:11:25;101055.21;;;3.67;82.25
63691;BME280;49837;57.280;27.070;2023-05-11T00:12:25;101057.03;;;3.68;82.4
63691;BME280;49837;57.280;27.070;2023-05-11T00:13:26;101057.91;;;3.67;82.63
63691;BME280;49837;57.280;27.070;2023-05-11T00:14:26;101057.67;;;3.66;82.47
63691;BME280;49837;57.280;27.070;2023-05-11T00:15:26;101054.66;;;3.69;82.33
63691;BME280;49837;57.280;27.070;2023-05-11T00:16:27;101058.7;;;3.68;82.29
63691;BME280;49837;57.280;27.070;2023-05-11T00:17:27;101057.94;;;3.69;82.21
63691;BME280;49837;57.280;27.070;2023-05-11T00:18:27;101056.98;;;3.71;81.85
63691;BME280;49837;57.280;27.070;2023-05-11T00:19:28;101055.02;;;3.71;81.68
63691;BME280;49837;57.280;27.070;2023-05-11T00:20:28;101057.66;;;3.73;81.42
63691;BME280;49837;57.280;27.070;2023-05-11T00:21:28;101059.07;;;3.72;81.83
63691;BME280;49837;57.280;27.070;2023-05-11T00:22:29;101058.14;;;3.72;81.9
63691;BME280;49837;57.280;27.070;2023-05-11T00:23:29;101061.9;;;3.73;82.28
63691;BME280;49837;57.280;27.070;2023-05-11T00:24:29;101062.08;;;3.74;82.77
63691;BME280;49837;57.280;27.070;2023-05-11T00:25:30;101058.85;;;3.68;82.74
63691;BME280;49837;57.280;27.070;2023-05-11T00:26:30;101062.84;;;3.65;82.65
63691;BME280;49837;57.280;27.070;2023-05-11T00:27:30;101064.19;;;3.66;82.89
63691;BME280;49837;57.280;27.070;2023-05-11T00:28:31;101066.27;;;3.61;82.92
63691;BME280;49837;57.280;27.070;2023-05-11T00:29:31;101063.52;;;3.53;83.11
63691;BME280;49837;57.280;27.070;2023-05-11T00:30:32;101061.39;;;3.55;82.73
63691;BME280;49837;57.280;27.070;2023-05-11T00:31:32;101067.25;;;3.59;82.85
63691;BME280;49837;57.280;27.070;2023-05-11T00:32:32;101063.42;;;3.58;83.14
63691;BME280;49837;57.280;27.070;2023-05-11T00:33:32;101065.7;;;3.55;83.35
63691;BME280;49837;57.280;27.070;2023-05-11T00:34:33;101066.91;;;3.53;83.54
63691;BME280;49837;57.280;27.070;2023-05-11T00:35:33;101063.17;;;3.51;83.84
63691;BME280;49837;57.280;27.070;2023-05-11T00:36:33;101064.45;;;3.48;83.96
63691;BME280;49837;57.280;27.070;2023-05-11T00:37:34;101065.19;;;3.47;84.09
63691;BME280;49837;57.280;27.070;2023-05-11T00:38:34;101066.24;;;3.47;84.06
63691;BME280;49837;57.280;27.070;2023-05-11T00:39:35;101066.66;;;3.47;84.13
63691;BME280;49837;57.280;27.070;2023-05-11T00:40:35;101072.63;;;3.49;84.09
63691;BME280;49837;57.280;27.070;2023-05-11T00:41:35;101063.8;;;3.49;84.24
63691;BME280;49837;57.280;27.070;2023-05-11T00:42:37;101068.7;;;3.46;84.93
63691;BME280;49837;57.280;27.070;2023-05-11T00:43:36;101071.33;;;3.45;85.22
63691;BME280;49837;57.280;27.070;2023-05-11T00:44:36;101070.3;;;3.47;85.34
63691;BME280;49837;57.280;27.070;2023-05-11T00:45:37;101069.34;;;3.45;85.52
63691;BME280;49837;57.280;27.070;2023-05-11T00:46:37;101071.12;;;3.43;85.83
63691;BME280;49837;57.280;27.070;2023-05-11T00:47:37;101070.33;;;3.44;85.62
63691;BME280;49837;57.280;27.070;2023-05-11T00:48:38;101070.58;;;3.44;85.63
63691;BME280;49837;57.280;27.070;2023-05-11T00:49:38;101076.2;;;3.45;85.49
63691;BME280;49837;57.280;27.070;2023-05-11T00:50:38;101074.3;;;3.45;85.53
63691;BME280;49837;57.280;27.070;2023-05-11T00:51:39;101072.95;;;3.48;84.88
63691;BME280;49837;57.280;27.070;2023-05-11T00:52:40;101076.2;;;3.52;84.03
63691;BME280;49837;57.280;27.070;2023-05-11T00:53:39;101076.45;;;3.5;83.99
63691;BME280;49837;57.280;27.070;2023-05-11T00:54:40;101075.52;;;3.5;83.45
63691;BME280;49837;57.280;27.070;2023-05-11T00:55:40;101079.17;;;3.52;83.32
63691;BME280;49837;57.280;27.070;2023-05-11T00:56:41;101077.25;;;3.49;83.04
63691;BME280;49837;57.280;27.070;2023-05-11T00:57:41;101076.11;;;3.5;83.05
63691;BME280;49837;57.280;27.070;2023-05-11T00:58:41;101076.2;;;3.5;83.33
63691;BME280;49837;57.280;27.070;2023-05-11T00:59:42;101075.11;;;3.44;83.78
63691;BME280;49837;57.280;27.070;2023-05-11T01:00:42;101074.61;;;3.38;83.55
63691;BME280;49837;57.280;27.070;2023-05-11T01:01:42;101078.62;;;3.35;83.31
63691;BME280;49837;57.280;27.070;2023-05-11T01:02:43;101078.64;;;3.31;83.46
63691;BME280;49837;57.280;27.070;2023-05-11T01:03:44;101078.15;;;3.26;83.43
63691;BME280;49837;57.280;27.070;2023-05-11T01:04:44;101080.89;;;3.22;83.88
63691;BME280;49837;57.280;27.070;2023-05-11T01:08:11;101081.72;;;2.95;85.23
63691;BME280;49837;57.280;27.070;2023-05-11T01:09:02;101083.49;;;2.92;85.85
63691;BME280;49837;57.280;27.070;2023-05-11T01:16:19;101079.77;;;2.87;86.17
63691;BME280;49837;57.280;27.070;2023-05-11T01:17:26;101081.05;;;2.83;86.37
63691;BME280;49837;57.280;27.070;2023-05-11T01:20:29;101082.25;;;2.92;85.88
63691;BME280;49837;57.280;27.070;2023-05-11T01:21:31;101081.38;;;2.94;85.85
63691;BME280;49837;57.280;27.070;2023-05-11T01:31:48;101090.14;;;2.07;87.27
63691;BME280;49837;57.280;27.070;2023-05-11T01:32:48;101091.53;;;1.98;87.42
63691;BME280;49837;57.280;27.070;2023-05-11T01:34:53;101092.25;;;2.1;88.17
63691;BME280;49837;57.280;27.070;2023-05-11T01:35:54;101089.91;;;2.29;88.76
63691;BME280;49837;57.280;27.070;2023-05-11T01:36:57;101093.47;;;2.4;88.85
63691;BME280;49837;57.280;27.070;2023-05-11T01:37:57;101090.91;;;2.44;88.94
63691;BME280;49837;57.280;27.070;2023-05-11T01:38:58;101089.09;;;2.45;89.02
63691;BME280;49837;57.280;27.070;2023-05-11T01:39:58;101090.32;;;2.43;89.04
63691;BME280;49837;57.280;27.070;2023-05-11T01:40:58;101091.77;;;2.41;88.74
63691;BME280;49837;57.280;27.070;2023-05-11T01:42:03;101094.2;;;2.4;88.67
63691;BME280;49837;57.280;27.070;2023-05-11T01:43:04;101094.83;;;2.42;88.54
63691;BME280;49837;57.280;27.070;2023-05-11T01:44:02;101091.66;;;2.44;88.45
63691;BME280;49837;57.280;27.070;2023-05-11T01:45:00;101093.22;;;2.44;88.62
63691;BME280;49837;57.280;27.070;2023-05-11T01:46:01;101097.69;;;2.41;88.94
63691;BME280;49837;57.280;27.070;2023-05-11T01:47:02;101095.34;;;2.39;89.16
63691;BME280;49837;57.280;27.070;2023-05-11T01:48:07;101093.95;;;2.38;89.12
63691;BME280;49837;57.280;27.070;2023-05-11T01:49:06;101098.16;;;2.4;89.24
63691;BME280;49837;57.280;27.070;2023-05-11T01:50:07;101095.44;;;2.38;89.16
63691;BME280;49837;57.280;27.070;2023-05-11T01:51:06;101094.05;;;2.4;88.99
63691;BME280;49837;57.280;27.070;2023-05-11T01:52:07;101093.48;;;2.41;88.86
63691;BME280;49837;57.280;27.070;2023-05-11T01:53:07;101090.88;;;2.42;88.77
63691;BME280;49837;57.280;27.070;2023-05-11T01:54:08;101090.33;;;2.44;88.78
63691;BME280;49837;57.280;27.070;2023-05-11T01:55:08;101091.86;;;2.46;88.97
63691;BME280;49837;57.280;27.070;2023-05-11T01:56:08;101091.34;;;2.45;89.23
63691;BME280;49837;57.280;27.070;2023-05-11T01:57:10;101090.05;;;2.47;89.39
63691;BME280;49837;57.280;27.070;2023-05-11T01:58:09;101095.22;;;2.45;89.66
63691;BME280;49837;57.280;27.070;2023-05-11T01:59:09;101094.81;;;2.45;89.77
63691;BME280;49837;57.280;27.070;2023-05-11T02:00:09;101094.72;;;2.45;89.79
63691;BME280;49837;57.280;27.070;2023-05-11T02:01:10;101092.91;;;2.46;89.62
63691;BME280;49837;57.280;27.070;2023-05-11T02:02:10;101094.41;;;2.47;89.29
63691;BME280;49837;57.280;27.070;2023-05-11T02:03:10;101098.88;;;2.47;89.15
63691;BME280;49837;57.280;27.070;2023-05-11T02:04:10;101094.67;;;2.48;89.38
63691;BME280;49837;57.280;27.070;2023-05-11T02:05:13;101098.78;;;2.46;89.53
63691;BME280;49837;57.280;27.070;2023-05-11T02:06:13;101101.2;;;2.38;89.18
63691;BME280;49837;57.280;27.070;2023-05-11T02:07:13;101098.23;;;2.35;89.33
63691;BME280;49837;57.280;27.070;2023-05-11T02:08:13;101099.34;;;2.36;89.22
63691;BME280;49837;57.280;27.070;2023-05-11T02:09:15;101102.78;;;2.36;89.2
63691;BME280;49837;57.280;27.070;2023-05-11T02:10:13;101101.72;;;2.37;89.31
63691;BME280;49837;57.280;27.070;2023-05-11T02:11:14;101102.24;;;2.42;89.46
63691;BME280;49837;57.280;27.070;2023-05-11T02:12:17;101103.3;;;2.42;89.64
63691;BME280;49837;57.280;27.070;2023-05-11T02:13:15;101102.91;;;2.38;89.17
63691;BME280;49837;57.280;27.070;2023-05-11T02:14:16;101105.3;;;2.34;88.66
63691;BME280;49837;57.280;27.070;2023-05-11T02:15:15;101103.78;;;2.33;88.53
63691;BME280;49837;57.280;27.070;2023-05-11T02:16:16;101102.8;;;2.33;88.29
63691;BME280;49837;57.280;27.070;2023-05-11T02:17:18;101103.17;;;2.31;88.49
63691;BME280;49837;57.280;27.070;2023-05-11T02:18:18;101105.6;;;2.28;88.78
63691;BME280;49837;57.280;27.070;2023-05-11T02:19:19;101103.98;;;2.21;88.61
63691;BME280;49837;57.280;27.070;2023-05-11T02:20:18;101099.66;;;2.14;88.91
63691;BME280;49837;57.280;27.070;2023-05-11T02:21:19;101103.34;;;2.18;89.14
63691;BME280;49837;57.280;27.070;2023-05-11T02:22:19;101102.83;;;2.2;89.63
63691;BME280;49837;57.280;27.070;2023-05-11T02:23:20;101102.67;;;2.22;89.69
63691;BME280;49837;57.280;27.070;2023-05-11T02:24:20;101103.81;;;2.21;90.04
63691;BME280;49837;57.280;27.070;2023-05-11T02:25:20;101100.75;;;2.2;90.26
63691;BME280;49837;57.280;27.070;2023-05-11T02:26:20;101102.27;;;2.22;90.3
63691;BME280;49837;57.280;27.070;2023-05-11T02:27:20;101098.91;;;2.23;90.51
63691;BME280;49837;57.280;27.070;2023-05-11T02:28:21;101105.31;;;2.26;90.38
63691;BME280;49837;57.280;27.070;2023-05-11T02:29:21;101104.59;;;2.27;90.43
63691;BME280;49837;57.280;27.070;2023-05-11T02:30:21;101105.93;;;2.29;90.35
63691;BME280;49837;57.280;27.070;2023-05-11T02:31:26;101108.4;;;2.29;90.11
63691;BME280;49837;57.280;27.070;2023-05-11T02:32:25;101106.16;;;2.31;90.17
63691;BME280;49837;57.280;27.070;2023-05-11T02:33:29;101106.94;;;2.34;90.16
63691;BME280;49837;57.280;27.070;2023-05-11T02:34:28;101108.09;;;2.34;89.72
63691;BME280;49837;57.280;27.070;2023-05-11T02:35:33;101108.36;;;2.35;89.16
63691;BME280;49837;57.280;27.070;2023-05-11T02:36:35;101107.37;;;2.39;88.97
63691;BME280;49837;57.280;27.070;2023-05-11T02:37:40;101107.69;;;2.39;88.64
63691;BME280;49837;57.280;27.070;2023-05-11T02:38:35;101108.26;;;2.37;88.39
63691;BME280;49837;57.280;27.070;2023-05-11T02:39:35;101111.5;;;2.36;88.31
63691;BME280;49837;57.280;27.070;2023-05-11T02:40:39;101115.95;;;2.35;88.28
63691;BME280;49837;57.280;27.070;2023-05-11T02:41:40;101110.34;;;2.3;88.3
63691;BME280;49837;57.280;27.070;2023-05-11T02:42:41;101108.2;;;2.26;88.61
63691;BME280;49837;57.280;27.070;2023-05-11T02:43:46;101110.59;;;2.26;88.54
63691;BME280;49837;57.280;27.070;2023-05-11T02:44:47;101111.91;;;2.26;88.53
63691;BME280;49837;57.280;27.070;2023-05-11T02:45:43;101112.64;;;2.26;88.55
63691;BME280;49837;57.280;27.070;2023-05-11T02:46:43;101114.52;;;2.29;88.37
63691;BME280;49837;57.280;27.070;2023-05-11T02:47:51;101113.09;;;2.33;88.1
63691;BME280;49837;57.280;27.070;2023-05-11T02:48:48;101115.08;;;2.38;87.79
63691;BME280;49837;57.280;27.070;2023-05-11T02:49:48;101116.75;;;2.39;87.59
63691;BME280;49837;57.280;27.070;2023-05-11T02:50:47;101115.72;;;2.45;87.18
63691;BME280;49837;57.280;27.070;2023-05-11T02:51:48;101115.53;;;2.48;87.12
63691;BME280;49837;57.280;27.070;2023-05-11T02:52:48;101114.3;;;2.49;87.1
63691;BME280;49837;57.280;27.070;2023-05-11T02:53:49;101115.05;;;2.5;87.16
63691;BME280;49837;57.280;27.070;2023-05-11T02:54:50;101113.62;;;2.52;87.03
63691;BME280;49837;57.280;27.070;2023-05-11T02:55:49;101118.7;;;2.5;87.04
63691;BME280;49837;57.280;27.070;2023-05-11T02:56:50;101118.94;;;2.51;86.91
63691;BME280;49837;57.280;27.070;2023-05-11T02:57:49;101118.03;;;2.51;86.7
63691;BME280;49837;57.280;27.070;2023-05-11T02:58:50;101116.62;;;2.49;86.86
63691;BME280;49837;57.280;27.070;2023-05-11T02:59:50;101119.38;;;2.48;86.85
63691;BME280;49837;57.280;27.070;2023-05-11T03:00:50;101121.52;;;2.44;87.08
63691;BME280;49837;57.280;27.070;2023-05-11T03:01:51;101123.38;;;2.41;87.37
63691;BME280;49837;57.280;27.070;2023-05-11T03:02:51;101121.06;;;2.41;87.45
63691;BME280;49837;57.280;27.070;2023-05-11T03:03:51;101122.35;;;2.39;87.79
63691;BME280;49837;57.280;27.070;2023-05-11T03:04:52;101122.38;;;2.4;87.87
63691;BME280;49837;57.280;27.070;2023-05-11T03:05:52;101122.84;;;2.39;88.11
63691;BME280;49837;57.280;27.070;2023-05-11T03:06:52;101123.09;;;2.38;88.15
63691;BME280;49837;57.280;27.070;2023-05-11T03:07:56;101124.95;;;2.37;88.26
63691;BME280;49837;57.280;27.070;2023-05-11T03:08:54;101124.37;;;2.41;88.31
63691;BME280;49837;57.280;27.070;2023-05-11T03:09:54;101127.87;;;2.43;88.34
63691;BME280;49837;57.280;27.070;2023-05-11T03:10:55;101128.54;;;2.48;88.22
63691;BME280;49837;57.280;27.070;2023-05-11T03:11:55;101126.16;;;2.48;88.34
63691;BME280;49837;57.280;27.070;2023-05-11T03:12:55;101129.75;;;2.44;88.53
63691;BME280;49837;57.280;27.070;2023-05-11T03:13:55;101127.11;;;2.42;88.86
63691;BME280;49837;57.280;27.070;2023-05-11T03:14:57;101127.74;;;2.45;88.93
63691;BME280;49837;57.280;27.070;2023-05-11T03:15:56;101127.61;;;2.48;88.91
63691;BME280;49837;57.280;27.070;2023-05-11T03:16:57;101130.48;;;2.52;88.81
63691;BME280;49837;57.280;27.070;2023-05-11T03:17:58;101131.98;;;2.51;88.76
63691;BME280;49837;57.280;27.070;2023-05-11T03:18:58;101130.66;;;2.51;88.82
63691;BME280;49837;57.280;27.070;2023-05-11T03:19:58;101134.72;;;2.52;88.72
63691;BME280;49837;57.280;27.070;2023-05-11T03:20:59;101129.7;;;2.54;88.49
63691;BME280;49837;57.280;27.070;2023-05-11T03:21:58;101130.27;;;2.57;88.39
63691;BME280;49837;57.280;27.070;2023-05-11T03:22:59;101131.19;;;2.58;88.42
63691;BME280;49837;57.280;27.070;2023-05-11T03:23:59;101129.48;;;2.6;88.23
63691;BME280;49837;57.280;27.070;2023-05-11T03:25:00;101124.62;;;2.65;88.0
63691;BME280;49837;57.280;27.070;2023-05-11T03:26:00;101127.2;;;2.71;87.93
63691;BME280;49837;57.280;27.070;2023-05-11T03:27:00;101130.48;;;2.74;87.84
63691;BME280;49837;57.280;27.070;2023-05-11T03:28:00;101128.14;;;2.77;87.83
63691;BME280;49837;57.280;27.070;2023-05-11T03:29:01;101128.8;;;2.81;87.69
63691;BME280;49837;57.280;27.070;2023-05-11T03:30:03;101131.77;;;2.86;87.51
63691;BME280;49837;57.280;27.070;2023-05-11T03:31:03;101130.4;;;2.93;87.38
63691;BME280;49837;57.280;27.070;2023-05-11T03:32:04;101128.75;;;2.98;87.1
63691;BME280;49837;57.280;27.070;2023-05-11T03:33:04;101132.46;;;3.04;86.76
63691;BME280;49837;57.280;27.070;2023-05-11T03:34:04;101134.69;;;3.09;86.62
63691;BME280;49837;57.280;27.070;2023-05-11T03:35:06;101132.77;;;3.17;86.49
63691;BME280;49837;57.280;27.070;2023-05-11T03:36:08;101138.34;;;3.26;86.15
63691;BME280;49837;57.280;27.070;2023-05-11T03:37:09;101133.17;;;3.32;85.9
63691;BME280;49837;57.280;27.070;2023-05-11T03:38:10;101135.9;;;3.33;85.79
63691;BME280;49837;57.280;27.070;2023-05-11T03:39:10;101134.93;;;3.39;85.59
63691;BME280;49837;57.280;27.070;2023-05-11T03:40:11;101141.25;;;3.44;85.38
63691;BME280;49837;57.280;27.070;2023-05-11T03:41:14;101140.69;;;3.5;85.28
63691;BME280;49837;57.280;27.070;2023-05-11T03:42:13;101138.0;;;3.59;85.06
63691;BME280;49837;57.280;27.070;2023-05-11T03:43:15;101142.52;;;3.69;84.84
63691;BME280;49837;57.280;27.070;2023-05-11T03:44:16;101141.96;;;3.77;84.75
63691;BME280;49837;57.280;27.070;2023-05-11T03:45:16;101142.28;;;3.87;84.46
63691;BME280;49837;57.280;27.070;2023-05-11T03:46:18;101141.61;;;3.92;84.09
63691;BME280;49837;57.280;27.070;2023-05-11T03:47:17;101142.88;;;4.02;83.81
63691;BME280;49837;57.280;27.070;2023-05-11T03:48:17;101142.09;;;4.12;83.54
63691;BME280;49837;57.280;27.070;2023-05-11T03:49:17;101142.69;;;4.2;83.55
63691;BME280;49837;57.280;27.070;2023-05-11T03:50:18;101140.56;;;4.22;83.62
63691;BME280;49837;57.280;27.070;2023-05-11T03:51:18;101144.16;;;4.25;83.59
63691;BME280;49837;57.280;27.070;2023-05-11T03:52:18;101142.56;;;4.25;83.43
63691;BME280;49837;57.280;27.070;2023-05-11T03:53:19;101144.19;;;4.29;83.25
63691;BME280;49837;57.280;27.070;2023-05-11T03:54:19;101145.08;;;4.28;83.26
63691;BME280;49837;57.280;27.070;2023-05-11T03:55:19;101141.96;;;4.28;83.11
63691;BME280;49837;57.280;27.070;2023-05-11T03:56:19;101146.24;;;4.27;82.97
63691;BME280;49837;57.280;27.070;2023-05-11T03:57:20;101144.09;;;4.26;82.83
63691;BME280;49837;57.280;27.070;2023-05-11T03:58:21;101148.62;;;4.26;82.76
63691;BME280;49837;57.280;27.070;2023-05-11T03:59:21;101149.02;;;4.26;82.85
63691;BME280;49837;57.280;27.070;2023-05-11T04:00:21;101147.77;;;4.32;82.63
63691;BME280;49837;57.280;27.070;2023-05-11T04:01:21;101148.34;;;4.37;82.47
63691;BME280;49837;57.280;27.070;2023-05-11T04:02:21;101152.69;;;4.36;82.64
63691;BME280;49837;57.280;27.070;2023-05-11T04:03:22;101150.48;;;4.38;82.84
63691;BME280;49837;57.280;27.070;2023-05-11T04:04:31;101151.38;;;4.45;82.58
63691;BME280;49837;57.280;27.070;2023-05-11T04:05:24;101151.8;;;4.43;82.86
63691;BME280;49837;57.280;27.070;2023-05-11T04:06:24;101150.72;;;4.5;82.62
63691;BME280;49837;57.280;27.070;2023-05-11T04:07:24;101153.21;;;4.53;82.48
63691;BME280;49837;57.280;27.070;2023-05-11T04:08:25;101154.31;;;4.55;82.62
63691;BME280;49837;57.280;27.070;2023-05-11T04:09:25;101153.71;;;4.6;82.56
63691;BME280;49837;57.280;27.070;2023-05-11T04:10:25;101151.85;;;4.66;82.31
63691;BME280;49837;57.280;27.070;2023-05-11T04:11:26;101153.38;;;4.67;82.48
63691;BME280;49837;57.280;27.070;2023-05-11T04:12:26;101152.77;;;4.73;82.48
63691;BME280;49837;57.280;27.070;2023-05-11T04:13:26;101154.05;;;4.77;82.69
63691;BME280;49837;57.280;27.070;2023-05-11T04:14:27;101153.57;;;4.81;82.5
63691;BME280;49837;57.280;27.070;2023-05-11T04:15:27;101156.33;;;4.84;82.26
63691;BME280;49837;57.280;27.070;2023-05-11T04:16:28;101158.46;;;4.9;82.1
63691;BME280;49837;57.280;27.070;2023-05-11T04:17:28;101157.98;;;4.94;82.12
63691;BME280;49837;57.280;27.070;2023-05-11T04:18:28;101157.46;;;5.0;81.81
63691;BME280;49837;57.280;27.070;2023-05-11T04:19:29;101157.11;;;5.04;81.71
63691;BME280;49837;57.280;27.070;2023-05-11T04:20:29;101156.61;;;5.06;81.99
63691;BME280;49837;57.280;27.070;2023-05-11T04:21:29;101156.91;;;5.1;82.19
63691;BME280;49837;57.280;27.070;2023-05-11T04:22:30;101157.95;;;5.16;81.84
63691;BME280;49837;57.280;27.070;2023-05-11T04:23:30;101156.03;;;5.16;82.0
63691;BME280;49837;57.280;27.070;2023-05-11T04:24:30;101159.83;;;5.26;81.78
63691;BME280;49837;57.280;27.070;2023-05-11T04:25:31;101157.57;;;5.31;81.78
63691;BME280;49837;57.280;27.070;2023-05-11T04:26:31;101156.45;;;5.36;81.69
63691;BME280;49837;57.280;27.070;2023-05-11T04:27:32;101156.22;;;5.4;81.56
63691;BME280;49837;57.280;27.070;2023-05-11T04:28:32;101160.0;;;5.47;81.43
63691;BME280;49837;57.280;27.070;2023-05-11T04:29:32;101154.94;;;5.58;81.2
63691;BME280;49837;57.280;27.070;2023-05-11T04:30:33;101159.08;;;5.69;80.65
63691;BME280;49837;57.280;27.070;2023-05-11T04:31:33;101155.16;;;5.79;80.48
63691;BME280;49837;57.280;27.070;2023-05-11T04:32:33;101154.25;;;5.82;80.03
63691;BME280;49837;57.280;27.070;2023-05-11T04:33:34;101158.25;;;5.83;79.98
63691;BME280;49837;57.280;27.070;2023-05-11T04:34:34;101157.27;;;5.9;79.7
63691;BME280;49837;57.280;27.070;2023-05-11T04:35:38;101158.62;;;5.96;79.21
63691;BME280;49837;57.280;27.070;2023-05-11T04:36:35;101156.7;;;6.03;79.23
63691;BME280;49837;57.280;27.070;2023-05-11T04:37:36;101154.5;;;6.08;79.21
63691;BME280;49837;57.280;27.070;2023-05-11T04:38:36;101159.0;;;6.16;79.06
63691;BME280;49837;57.280;27.070;2023-05-11T04:39:36;101157.39;;;6.29;78.71
63691;BME280;49837;57.280;27.070;2023-05-11T04:40:37;101156.92;;;6.36;78.27
63691;BME280;49837;57.280;27.070;2023-05-11T04:41:37;101157.12;;;6.45;78.09
63691;BME280;49837;57.280;27.070;2023-05-11T04:42:38;101159.88;;;6.54;77.75
63691;BME280;49837;57.280;27.070;2023-05-11T04:43:38;101156.44;;;6.66;77.15
63691;BME280;49837;57.280;27.070;2023-05-11T04:44:39;101160.59;;;6.8;76.85
63691;BME280;49837;57.280;27.070;2023-05-11T04:45:39;101162.2;;;7.01;76.35
63691;BME280;49837;57.280;27.070;2023-05-11T04:46:39;101162.2;;;7.25;76.67
63691;BME280;49837;57.280;27.070;2023-05-11T04:47:39;101155.95;;;7.44;75.32
63691;BME280;49837;57.280;27.070;2023-05-11T04:48:40;101157.2;;;7.54;74.48
63691;BME280;49837;57.280;27.070;2023-05-11T04:49:40;101157.68;;;7.69;74.31
63691;BME280;49837;57.280;27.070;2023-05-11T04:50:41;101157.97;;;7.86;74.53
63691;BME280;49837;57.280;27.070;2023-05-11T04:51:41;101157.83;;;7.99;74.36
63691;BME280;49837;57.280;27.070;2023-05-11T04:52:41;101158.4;;;8.07;74.0
63691;BME280;49837;57.280;27.070;2023-05-11T04:53:42;101160.73;;;8.21;73.15
63691;BME280;49837;57.280;27.070;2023-05-11T04:54:42;101159.2;;;8.3;72.86
63691;BME280;49837;57.280;27.070;2023-05-11T04:55:42;101157.37;;;8.33;71.25
63691;BME280;49837;57.280;27.070;2023-05-11T04:56:43;101155.56;;;8.42;71.0
63691;BME280;49837;57.280;27.070;2023-05-11T04:57:43;101151.57;;;8.46;69.96
63691;BME280;49837;57.280;27.070;2023-05-11T04:58:44;101157.41;;;8.64;70.49
63691;BME280;49837;57.280;27.070;2023-05-11T04:59:44;101156.51;;;8.74;69.97
63691;BME280;49837;57.280;27.070;2023-05-11T05:00:44;101155.48;;;8.78;68.78
63691;BME280;49837;57.280;27.070;2023-05-11T05:01:45;101155.34;;;8.87;67.79
63691;BME280;49837;57.280;27.070;2023-05-11T05:02:45;101157.06;;;8.9;68.18
63691;BME280;49837;57.280;27.070;2023-05-11T05:03:48;101159.76;;;8.96;66.73
63691;BME280;49837;57.280;27.070;2023-05-11T05:04:46;101155.3;;;9.05;66.47
63691;BME280;49837;57.280;27.070;2023-05-11T05:05:46;101150.48;;;9.22;66.85
63691;BME280;49837;57.280;27.070;2023-05-11T05:06:47;101156.55;;;9.25;66.21
63691;BME280;49837;57.280;27.070;2023-05-11T05:07:47;101154.53;;;9.26;66.24
63691;BME280;49837;57.280;27.070;2023-05-11T05:08:47;101155.23;;;9.4;67.52
63691;BME280;49837;57.280;27.070;2023-05-11T05:09:48;101156.59;;;9.55;66.24
63691;BME280;49837;57.280;27.070;2023-05-11T05:10:48;101155.27;;;9.64;66.29
63691;BME280;49837;57.280;27.070;2023-05-11T05:11:49;101152.05;;;9.68;64.93
63691;BME280;49837;57.280;27.070;2023-05-11T05:12:49;101154.41;;;9.73;64.36
63691;BME280;49837;57.280;27.070;2023-05-11T05:13:49;101155.64;;;9.77;65.19
63691;BME280;49837;57.280;27.070;2023-05-11T05:14:50;101153.51;;;9.95;64.37
63691;BME280;49837;57.280;27.070;2023-05-11T05:15:50;101154.07;;;10.05;63.26
63691;BME280;49837;57.280;27.070;2023-05-11T05:16:51;101153.93;;;10.03;63.75
63691;BME280;49837;57.280;27.070;2023-05-11T05:17:51;101157.89;;;10.12;63.57
63691;BME280;49837;57.280;27.070;2023-05-11T05:18:51;101153.92;;;10.23;62.71
63691;BME280;49837;57.280;27.070;2023-05-11T05:19:52;101155.62;;;10.33;62.88
63691;BME280;49837;57.280;27.070;2023-05-11T05:20:52;101154.12;;;10.43;62.77
63691;BME280;49837;57.280;27.070;2023-05-11T05:21:53;101153.57;;;10.41;60.75
63691;BME280;49837;57.280;27.070;2023-05-11T05:22:53;101153.11;;;10.34;61.89
63691;BME280;49837;57.280;27.070;2023-05-11T05:23:53;101151.73;;;10.32;61.14
63691;BME280;49837;57.280;27.070;2023-05-11T05:24:54;101153.44;;;10.34;60.92
63691;BME280;49837;57.280;27.070;2023-05-11T05:25:54;101154.87;;;10.42;61.45
63691;BME280;49837;57.280;27.070;2023-05-11T05:26:55;101153.61;;;10.55;60.33
63691;BME280;49837;57.280;27.070;2023-05-11T05:27:55;101152.89;;;10.54;58.84
63691;BME280;49837;57.280;27.070;2023-05-11T05:28:55;101153.98;;;10.64;59.69
63691;BME280;49837;57.280;27.070;2023-05-11T05:29:56;101148.55;;;10.75;59.22
63691;BME280;49837;57.280;27.070;2023-05-11T05:30:57;101152.36;;;10.83;59.01
63691;BME280;49837;57.280;27.070;2023-05-11T05:31:57;101151.3;;;10.89;58.88
63691;BME280;49837;57.280;27.070;2023-05-11T05:32:57;101153.62;;;10.99;58.49
63691;BME280;49837;57.280;27.070;2023-05-11T05:33:58;101155.35;;;11.07;58.12
63691;BME280;49837;57.280;27.070;2023-05-11T05:34:58;101160.27;;;11.17;57.93
63691;BME280;49837;57.280;27.070;2023-05-11T05:35:58;101158.97;;;11.15;58.25
63691;BME280;49837;57.280;27.070;2023-05-11T05:36:59;101155.98;;;11.25;57.8
63691;BME280;49837;57.280;27.070;2023-05-11T05:37:59;101157.17;;;11.34;59.73